Terminal Aerodrome Forecast
Issued by NWS

Home | Current Version | Previous Version | Text Only | Print | Product List | Glossary On
Versions: 1 2 3 4 5 6 7 8 9 10 11 12 13 14 15 16 17 18 19 20 21 22 23 24 25
247
FTUS43 KPAH 180225 AAB
TAFCGI
TAF AMD
KCGI 180225Z 1802/1824 VRB04KT 4SM BR FEW020
      TEMPO 1802/1806 1SM BR
     FM180600 00000KT 2SM BR SKC
     FM180900 12003KT 1SM BR SKC
     FM181300 14003KT P6SM SCT200
     FM181800 14008KT P6SM SCT200=

USA.gov is the U.S. government's official web portal to all federal, state and local government web resources and services.